sensor_id;sensor_type;location;lat;lon;timestamp;temperature;humidity
1351;DHT22;669;50.206;9.998;2022-07-22T00:01:42;17.80;57.80
1351;DHT22;669;50.206;9.998;2022-07-22T00:04:11;17.80;57.20
1351;DHT22;669;50.206;9.998;2022-07-22T00:06:39;17.70;57.60
1351;DHT22;669;50.206;9.998;2022-07-22T00:09:07;17.70;57.50
1351;DHT22;669;50.206;9.998;2022-07-22T00:11:35;17.70;59.10
1351;DHT22;669;50.206;9.998;2022-07-22T00:14:03;17.80;57.80
1351;DHT22;669;50.206;9.998;2022-07-22T00:16:31;17.70;57.50
1351;DHT22;669;50.206;9.998;2022-07-22T00:19:00;17.70;57.80
1351;DHT22;669;50.206;9.998;2022-07-22T00:21:29;17.70;58.60
1351;DHT22;669;50.206;9.998;2022-07-22T00:23:57;17.70;58.50
1351;DHT22;669;50.206;9.998;2022-07-22T00:26:25;17.80;57.90
1351;DHT22;669;50.206;9.998;2022-07-22T00:28:53;17.90;58.80
1351;DHT22;669;50.206;9.998;2022-07-22T00:31:21;18.00;58.80
1351;DHT22;669;50.206;9.998;2022-07-22T00:33:50;18.10;58.50
1351;DHT22;669;50.206;9.998;2022-07-22T00:36:18;18.20;57.80
1351;DHT22;669;50.206;9.998;2022-07-22T00:38:47;18.20;57.50
1351;DHT22;669;50.206;9.998;2022-07-22T00:41:15;18.20;57.50
1351;DHT22;669;50.206;9.998;2022-07-22T00:43:50;18.00;57.30
1351;DHT22;669;50.206;9.998;2022-07-22T00:46:19;17.90;58.00
1351;DHT22;669;50.206;9.998;2022-07-22T00:48:47;17.90;57.70
1351;DHT22;669;50.206;9.998;2022-07-22T00:51:16;17.80;57.30
1351;DHT22;669;50.206;9.998;2022-07-22T00:53:46;17.80;57.90
1351;DHT22;669;50.206;9.998;2022-07-22T00:56:15;17.70;57.70
1351;DHT22;669;50.206;9.998;2022-07-22T00:58:45;17.70;57.80
1351;DHT22;669;50.206;9.998;2022-07-22T01:01:13;17.70;57.80
1351;DHT22;669;50.206;9.998;2022-07-22T01:03:41;17.50;56.90
1351;DHT22;669;50.206;9.998;2022-07-22T01:06:15;17.40;57.20
1351;DHT22;669;50.206;9.998;2022-07-22T01:08:43;17.40;59.10
1351;DHT22;669;50.206;9.998;2022-07-22T01:11:15;17.40;58.90
1351;DHT22;669;50.206;9.998;2022-07-22T01:13:44;17.50;58.30
1351;DHT22;669;50.206;9.998;2022-07-22T01:16:13;17.50;58.10
1351;DHT22;669;50.206;9.998;2022-07-22T01:18:42;17.50;58.40
1351;DHT22;669;50.206;9.998;2022-07-22T01:21:13;17.50;58.10
1351;DHT22;669;50.206;9.998;2022-07-22T01:23:41;17.50;58.40
1351;DHT22;669;50.206;9.998;2022-07-22T01:26:09;17.40;56.80
1351;DHT22;669;50.206;9.998;2022-07-22T01:28:37;17.20;57.10
1351;DHT22;669;50.206;9.998;2022-07-22T01:31:06;17.10;57.70
1351;DHT22;669;50.206;9.998;2022-07-22T01:33:34;17.00;59.20
1351;DHT22;669;50.206;9.998;2022-07-22T01:36:03;17.00;60.00
1351;DHT22;669;50.206;9.998;2022-07-22T01:38:33;17.00;59.30
1351;DHT22;669;50.206;9.998;2022-07-22T01:41:01;16.90;59.60
1351;DHT22;669;50.206;9.998;2022-07-22T01:43:29;16.80;58.90
1351;DHT22;669;50.206;9.998;2022-07-22T01:45:58;16.70;57.70
1351;DHT22;669;50.206;9.998;2022-07-22T01:48:26;16.70;58.60
1351;DHT22;669;50.206;9.998;2022-07-22T01:50:54;16.50;59.80
1351;DHT22;669;50.206;9.998;2022-07-22T01:53:22;16.60;59.40
1351;DHT22;669;50.206;9.998;2022-07-22T01:55:51;16.70;59.20
1351;DHT22;669;50.206;9.998;2022-07-22T01:58:19;16.60;60.00
1351;DHT22;669;50.206;9.998;2022-07-22T02:00:48;16.80;61.40
1351;DHT22;669;50.206;9.998;2022-07-22T02:03:16;16.70;58.80
1351;DHT22;669;50.206;9.998;2022-07-22T02:05:44;16.60;59.30
1351;DHT22;669;50.206;9.998;2022-07-22T02:08:12;16.40;59.00
1351;DHT22;669;50.206;9.998;2022-07-22T02:10:41;16.40;59.30
1351;DHT22;669;50.206;9.998;2022-07-22T02:13:10;16.30;60.70
1351;DHT22;669;50.206;9.998;2022-07-22T02:15:38;16.40;60.00
1351;DHT22;669;50.206;9.998;2022-07-22T02:18:11;16.40;59.60
1351;DHT22;669;50.206;9.998;2022-07-22T02:20:39;16.50;60.60
1351;DHT22;669;50.206;9.998;2022-07-22T02:23:07;16.60;60.60
1351;DHT22;669;50.206;9.998;2022-07-22T02:25:37;16.40;57.30
1351;DHT22;669;50.206;9.998;2022-07-22T02:28:06;16.10;58.50
1351;DHT22;669;50.206;9.998;2022-07-22T02:30:35;15.90;59.30
1351;DHT22;669;50.206;9.998;2022-07-22T02:33:03;15.80;59.20
1351;DHT22;669;50.206;9.998;2022-07-22T02:35:32;15.70;59.00
1351;DHT22;669;50.206;9.998;2022-07-22T02:38:01;15.70;60.40
1351;DHT22;669;50.206;9.998;2022-07-22T02:40:29;15.70;62.30
1351;DHT22;669;50.206;9.998;2022-07-22T02:42:57;15.80;60.90
1351;DHT22;669;50.206;9.998;2022-07-22T02:45:25;15.80;60.50
1351;DHT22;669;50.206;9.998;2022-07-22T02:47:55;15.80;61.20
1351;DHT22;669;50.206;9.998;2022-07-22T02:50:24;15.80;60.60
1351;DHT22;669;50.206;9.998;2022-07-22T02:52:52;15.70;60.50
1351;DHT22;669;50.206;9.998;2022-07-22T02:55:20;15.60;59.90
1351;DHT22;669;50.206;9.998;2022-07-22T02:57:48;15.60;61.40
1351;DHT22;669;50.206;9.998;2022-07-22T03:00:16;15.60;60.80
1351;DHT22;669;50.206;9.998;2022-07-22T03:02:47;15.50;58.80
1351;DHT22;669;50.206;9.998;2022-07-22T03:05:16;15.50;61.10
1351;DHT22;669;50.206;9.998;2022-07-22T03:07:44;15.50;61.50
1351;DHT22;669;50.206;9.998;2022-07-22T03:10:12;15.50;62.10
1351;DHT22;669;50.206;9.998;2022-07-22T03:12:40;15.40;61.60
1351;DHT22;669;50.206;9.998;2022-07-22T03:15:08;15.50;59.70
1351;DHT22;669;50.206;9.998;2022-07-22T03:17:37;15.40;59.50
1351;DHT22;669;50.206;9.998;2022-07-22T03:20:07;15.40;60.50
1351;DHT22;669;50.206;9.998;2022-07-22T03:22:37;15.60;61.80
1351;DHT22;669;50.206;9.998;2022-07-22T03:25:05;15.60;60.90
1351;DHT22;669;50.206;9.998;2022-07-22T03:27:33;15.40;59.20
1351;DHT22;669;50.206;9.998;2022-07-22T03:30:01;15.20;59.10
1351;DHT22;669;50.206;9.998;2022-07-22T03:32:29;15.00;58.70
1351;DHT22;669;50.206;9.998;2022-07-22T03:34:57;15.00;60.80
1351;DHT22;669;50.206;9.998;2022-07-22T03:37:30;15.00;61.60
1351;DHT22;669;50.206;9.998;2022-07-22T03:39:59;15.00;62.10
1351;DHT22;669;50.206;9.998;2022-07-22T03:42:28;15.10;61.50
1351;DHT22;669;50.206;9.998;2022-07-22T03:44:55;15.10;60.50
1351;DHT22;669;50.206;9.998;2022-07-22T03:47:23;14.90;59.20
1351;DHT22;669;50.206;9.998;2022-07-22T03:49:52;14.90;61.70
1351;DHT22;669;50.206;9.998;2022-07-22T03:52:20;15.00;62.70
1351;DHT22;669;50.206;9.998;2022-07-22T03:54:48;15.20;62.50
1351;DHT22;669;50.206;9.998;2022-07-22T03:57:17;15.30;62.20
1351;DHT22;669;50.206;9.998;2022-07-22T03:59:46;15.30;61.20
1351;DHT22;669;50.206;9.998;2022-07-22T04:02:14;15.20;59.10
1351;DHT22;669;50.206;9.998;2022-07-22T04:04:42;15.00;59.00
1351;DHT22;669;50.206;9.998;2022-07-22T04:07:10;14.90;60.60
1351;DHT22;669;50.206;9.998;2022-07-22T04:09:38;14.90;61.90
1351;DHT22;669;50.206;9.998;2022-07-22T04:12:06;15.10;62.90
1351;DHT22;669;50.206;9.998;2022-07-22T04:14:35;15.20;63.40
1351;DHT22;669;50.206;9.998;2022-07-22T04:17:03;15.30;63.10
1351;DHT22;669;50.206;9.998;2022-07-22T04:19:32;15.20;61.30
1351;DHT22;669;50.206;9.998;2022-07-22T04:22:00;15.20;60.20
1351;DHT22;669;50.206;9.998;2022-07-22T04:24:28;15.10;59.30
1351;DHT22;669;50.206;9.998;2022-07-22T04:26:56;15.10;60.90
1351;DHT22;669;50.206;9.998;2022-07-22T04:29:24;15.20;62.80
1351;DHT22;669;50.206;9.998;2022-07-22T04:31:53;15.50;62.10
1351;DHT22;669;50.206;9.998;2022-07-22T04:34:28;15.50;60.00
1351;DHT22;669;50.206;9.998;2022-07-22T04:36:56;15.50;59.80
1351;DHT22;669;50.206;9.998;2022-07-22T04:39:24;15.60;61.90
1351;DHT22;669;50.206;9.998;2022-07-22T04:41:51;15.80;61.90
1351;DHT22;669;50.206;9.998;2022-07-22T04:44:19;16.00;62.30
1351;DHT22;669;50.206;9.998;2022-07-22T04:46:47;16.20;61.70
1351;DHT22;669;50.206;9.998;2022-07-22T04:49:17;16.30;61.90
1351;DHT22;669;50.206;9.998;2022-07-22T04:51:45;16.40;59.60
1351;DHT22;669;50.206;9.998;2022-07-22T04:54:13;16.60;61.40
1351;DHT22;669;50.206;9.998;2022-07-22T04:56:41;16.70;61.80
1351;DHT22;669;50.206;9.998;2022-07-22T04:59:10;16.90;61.70
1351;DHT22;669;50.206;9.998;2022-07-22T05:01:38;17.20;59.40
1351;DHT22;669;50.206;9.998;2022-07-22T05:04:06;17.50;58.50
1351;DHT22;669;50.206;9.998;2022-07-22T05:06:35;17.70;57.90
1351;DHT22;669;50.206;9.998;2022-07-22T05:09:03;17.90;57.60
1351;DHT22;669;50.206;9.998;2022-07-22T05:11:31;18.30;57.60
1351;DHT22;669;50.206;9.998;2022-07-22T05:13:59;18.60;57.40
1351;DHT22;669;50.206;9.998;2022-07-22T05:16:27;19.00;57.30
1351;DHT22;669;50.206;9.998;2022-07-22T05:18:55;19.10;54.70
1351;DHT22;669;50.206;9.998;2022-07-22T05:21:24;19.40;54.70
1351;DHT22;669;50.206;9.998;2022-07-22T05:23:54;19.70;54.40
1351;DHT22;669;50.206;9.998;2022-07-22T05:26:22;20.00;53.70
1351;DHT22;669;50.206;9.998;2022-07-22T05:28:52;20.10;53.40
1351;DHT22;669;50.206;9.998;2022-07-22T05:31:21;20.20;53.20
1351;DHT22;669;50.206;9.998;2022-07-22T05:33:49;20.50;52.20
1351;DHT22;669;50.206;9.998;2022-07-22T05:36:17;20.70;51.90
1351;DHT22;669;50.206;9.998;2022-07-22T05:38:45;20.90;51.40
1351;DHT22;669;50.206;9.998;2022-07-22T05:41:14;21.00;51.30
1351;DHT22;669;50.206;9.998;2022-07-22T05:43:42;21.20;52.00
1351;DHT22;669;50.206;9.998;2022-07-22T05:46:10;21.40;51.00
1351;DHT22;669;50.206;9.998;2022-07-22T05:48:38;21.70;51.20
1351;DHT22;669;50.206;9.998;2022-07-22T05:51:10;21.90;50.80
1351;DHT22;669;50.206;9.998;2022-07-22T05:53:39;22.10;49.60
1351;DHT22;669;50.206;9.998;2022-07-22T05:56:08;22.40;48.60
1351;DHT22;669;50.206;9.998;2022-07-22T05:58:39;22.40;48.30
1351;DHT22;669;50.206;9.998;2022-07-22T06:01:08;22.60;49.30
1351;DHT22;669;50.206;9.998;2022-07-22T06:03:36;22.70;48.00
1351;DHT22;669;50.206;9.998;2022-07-22T06:06:04;23.00;46.90
1351;DHT22;669;50.206;9.998;2022-07-22T06:08:35;23.20;46.00
1351;DHT22;669;50.206;9.998;2022-07-22T06:11:04;23.40;44.90
1351;DHT22;669;50.206;9.998;2022-07-22T06:13:32;23.40;45.00
1351;DHT22;669;50.206;9.998;2022-07-22T06:16:02;23.40;45.60
1351;DHT22;669;50.206;9.998;2022-07-22T06:18:30;23.70;44.50
1351;DHT22;669;50.206;9.998;2022-07-22T06:20:58;23.80;44.60
1351;DHT22;669;50.206;9.998;2022-07-22T06:23:26;24.10;42.70
1351;DHT22;669;50.206;9.998;2022-07-22T06:25:54;24.20;42.70
1351;DHT22;669;50.206;9.998;2022-07-22T06:28:22;24.20;42.30
1351;DHT22;669;50.206;9.998;2022-07-22T06:30:50;24.10;42.60
1351;DHT22;669;50.206;9.998;2022-07-22T06:33:19;24.10;43.80
1351;DHT22;669;50.206;9.998;2022-07-22T06:35:47;24.20;43.40
1351;DHT22;669;50.206;9.998;2022-07-22T06:38:15;24.20;42.60
1351;DHT22;669;50.206;9.998;2022-07-22T06:40:57;24.20;43.00
1351;DHT22;669;50.206;9.998;2022-07-22T06:43:26;24.30;44.00
1351;DHT22;669;50.206;9.998;2022-07-22T06:45:55;24.40;44.00
1351;DHT22;669;50.206;9.998;2022-07-22T06:48:25;24.60;42.10
1351;DHT22;669;50.206;9.998;2022-07-22T06:50:53;24.90;41.30
1351;DHT22;669;50.206;9.998;2022-07-22T06:53:20;25.10;39.70
1351;DHT22;669;50.206;9.998;2022-07-22T06:55:48;25.00;41.30
1351;DHT22;669;50.206;9.998;2022-07-22T06:58:16;25.20;39.50
1351;DHT22;669;50.206;9.998;2022-07-22T07:00:45;25.40;39.70
1351;DHT22;669;50.206;9.998;2022-07-22T07:03:12;25.30;40.00
1351;DHT22;669;50.206;9.998;2022-07-22T07:06:02;25.30;39.60
1351;DHT22;669;50.206;9.998;2022-07-22T07:08:30;25.50;39.30
1351;DHT22;669;50.206;9.998;2022-07-22T07:10:58;25.60;39.10
1351;DHT22;669;50.206;9.998;2022-07-22T07:13:28;25.80;39.90
1351;DHT22;669;50.206;9.998;2022-07-22T07:15:55;26.00;40.60
1351;DHT22;669;50.206;9.998;2022-07-22T07:18:24;26.40;39.30
1351;DHT22;669;50.206;9.998;2022-07-22T07:20:52;26.40;37.20
1351;DHT22;669;50.206;9.998;2022-07-22T07:23:21;26.60;38.10
1351;DHT22;669;50.206;9.998;2022-07-22T07:25:50;26.50;38.70
1351;DHT22;669;50.206;9.998;2022-07-22T07:28:19;26.70;36.70
1351;DHT22;669;50.206;9.998;2022-07-22T07:30:48;26.80;38.70
1351;DHT22;669;50.206;9.998;2022-07-22T07:33:16;27.20;37.50
1351;DHT22;669;50.206;9.998;2022-07-22T07:35:44;27.30;36.20
1351;DHT22;669;50.206;9.998;2022-07-22T07:38:12;27.20;36.20
1351;DHT22;669;50.206;9.998;2022-07-22T07:40:42;27.20;36.40
1351;DHT22;669;50.206;9.998;2022-07-22T07:43:10;27.40;37.10
1351;DHT22;669;50.206;9.998;2022-07-22T07:45:38;27.20;35.50
1351;DHT22;669;50.206;9.998;2022-07-22T07:48:06;27.10;36.10
1351;DHT22;669;50.206;9.998;2022-07-22T07:50:34;27.30;36.10
1351;DHT22;669;50.206;9.998;2022-07-22T07:53:02;27.40;34.80
1351;DHT22;669;50.206;9.998;2022-07-22T07:55:30;27.50;36.40
1351;DHT22;669;50.206;9.998;2022-07-22T07:58:01;27.70;34.20
1351;DHT22;669;50.206;9.998;2022-07-22T08:00:29;27.80;34.10
1351;DHT22;669;50.206;9.998;2022-07-22T08:02:59;27.80;34.70
1351;DHT22;669;50.206;9.998;2022-07-22T08:05:28;27.90;35.20
1351;DHT22;669;50.206;9.998;2022-07-22T08:07:57;28.20;33.80
1351;DHT22;669;50.206;9.998;2022-07-22T08:10:25;28.30;33.90
1351;DHT22;669;50.206;9.998;2022-07-22T08:13:15;28.40;33.60
1351;DHT22;669;50.206;9.998;2022-07-22T08:15:44;28.70;32.50
1351;DHT22;669;50.206;9.998;2022-07-22T08:18:13;28.50;32.10
1351;DHT22;669;50.206;9.998;2022-07-22T08:20:41;28.40;33.90
1351;DHT22;669;50.206;9.998;2022-07-22T08:23:08;28.60;33.50
1351;DHT22;669;50.206;9.998;2022-07-22T08:25:36;29.00;31.30
1351;DHT22;669;50.206;9.998;2022-07-22T08:28:04;29.50;31.00
1351;DHT22;669;50.206;9.998;2022-07-22T08:30:34;29.60;30.40
1351;DHT22;669;50.206;9.998;2022-07-22T08:33:03;29.40;32.00
1351;DHT22;669;50.206;9.998;2022-07-22T08:35:31;28.90;32.60
1351;DHT22;669;50.206;9.998;2022-07-22T08:38:00;29.20;31.70
1351;DHT22;669;50.206;9.998;2022-07-22T08:40:31;29.70;31.00
1351;DHT22;669;50.206;9.998;2022-07-22T08:42:59;29.40;31.10
1351;DHT22;669;50.206;9.998;2022-07-22T08:45:29;29.50;31.70
1351;DHT22;669;50.206;9.998;2022-07-22T08:47:59;30.00;31.60
1351;DHT22;669;50.206;9.998;2022-07-22T08:50:30;30.20;31.40
1351;DHT22;669;50.206;9.998;2022-07-22T08:52:58;30.30;30.80
1351;DHT22;669;50.206;9.998;2022-07-22T08:55:26;30.20;31.10
1351;DHT22;669;50.206;9.998;2022-07-22T08:57:54;30.20;30.80
1351;DHT22;669;50.206;9.998;2022-07-22T09:00:22;30.40;29.20
1351;DHT22;669;50.206;9.998;2022-07-22T09:02:50;30.00;30.70
1351;DHT22;669;50.206;9.998;2022-07-22T09:05:19;30.00;30.40
1351;DHT22;669;50.206;9.998;2022-07-22T09:08:07;30.30;30.30
1351;DHT22;669;50.206;9.998;2022-07-22T09:10:36;30.60;30.00
1351;DHT22;669;50.206;9.998;2022-07-22T09:13:05;30.80;29.50
1351;DHT22;669;50.206;9.998;2022-07-22T09:15:35;30.80;31.50
1351;DHT22;669;50.206;9.998;2022-07-22T09:18:05;31.10;28.90
1351;DHT22;669;50.206;9.998;2022-07-22T09:20:35;31.10;29.30
1351;DHT22;669;50.206;9.998;2022-07-22T09:23:10;31.40;27.70
1351;DHT22;669;50.206;9.998;2022-07-22T09:25:39;31.30;28.10
1351;DHT22;669;50.206;9.998;2022-07-22T09:28:12;31.50;27.60
1351;DHT22;669;50.206;9.998;2022-07-22T09:30:47;31.70;25.90
1351;DHT22;669;50.206;9.998;2022-07-22T09:33:18;31.30;26.50
1351;DHT22;669;50.206;9.998;2022-07-22T09:35:48;31.40;26.40
1351;DHT22;669;50.206;9.998;2022-07-22T09:38:19;31.30;27.10
1351;DHT22;669;50.206;9.998;2022-07-22T09:40:48;31.40;27.40
1351;DHT22;669;50.206;9.998;2022-07-22T09:43:18;31.50;26.50
1351;DHT22;669;50.206;9.998;2022-07-22T09:45:49;31.60;26.80
1351;DHT22;669;50.206;9.998;2022-07-22T09:48:19;31.80;26.60
1351;DHT22;669;50.206;9.998;2022-07-22T09:50:50;31.80;26.60
1351;DHT22;669;50.206;9.998;2022-07-22T09:53:20;31.60;26.50
1351;DHT22;669;50.206;9.998;2022-07-22T09:55:49;31.50;28.00
1351;DHT22;669;50.206;9.998;2022-07-22T09:58:17;31.80;26.20
1351;DHT22;669;50.206;9.998;2022-07-22T10:00:45;32.10;26.40
1351;DHT22;669;50.206;9.998;2022-07-22T10:03:18;32.60;25.90
1351;DHT22;669;50.206;9.998;2022-07-22T10:05:50;32.80;24.30
1351;DHT22;669;50.206;9.998;2022-07-22T10:08:19;32.50;24.60
1351;DHT22;669;50.206;9.998;2022-07-22T10:10:48;32.50;24.50
1351;DHT22;669;50.206;9.998;2022-07-22T10:13:17;32.10;25.50
1351;DHT22;669;50.206;9.998;2022-07-22T10:15:46;32.30;24.50
1351;DHT22;669;50.206;9.998;2022-07-22T10:18:17;32.60;24.20
1351;DHT22;669;50.206;9.998;2022-07-22T10:20:46;32.80;24.20
1351;DHT22;669;50.206;9.998;2022-07-22T10:23:16;32.80;24.70
1351;DHT22;669;50.206;9.998;2022-07-22T10:25:51;33.00;24.10
1351;DHT22;669;50.206;9.998;2022-07-22T10:28:25;32.80;25.40
1351;DHT22;669;50.206;9.998;2022-07-22T10:30:53;32.50;25.10
1351;DHT22;669;50.206;9.998;2022-07-22T10:33:21;32.90;24.00
1351;DHT22;669;50.206;9.998;2022-07-22T10:35:58;33.40;23.20
1351;DHT22;669;50.206;9.998;2022-07-22T10:38:29;33.60;22.20
1351;DHT22;669;50.206;9.998;2022-07-22T10:40:59;33.60;22.20
1351;DHT22;669;50.206;9.998;2022-07-22T10:43:29;34.00;21.10
1351;DHT22;669;50.206;9.998;2022-07-22T10:45:58;33.30;22.80
1351;DHT22;669;50.206;9.998;2022-07-22T10:48:45;33.30;22.80
1351;DHT22;669;50.206;9.998;2022-07-22T10:51:16;32.70;23.10
1351;DHT22;669;50.206;9.998;2022-07-22T10:53:53;32.90;23.10
1351;DHT22;669;50.206;9.998;2022-07-22T10:56:25;33.30;22.70
1351;DHT22;669;50.206;9.998;2022-07-22T10:58:57;33.70;22.80
1351;DHT22;669;50.206;9.998;2022-07-22T11:01:28;33.90;22.30
1351;DHT22;669;50.206;9.998;2022-07-22T11:04:07;33.80;22.90
1351;DHT22;669;50.206;9.998;2022-07-22T11:06:45;33.50;22.10
1351;DHT22;669;50.206;9.998;2022-07-22T11:09:17;33.50;22.10
1351;DHT22;669;50.206;9.998;2022-07-22T11:11:47;33.50;22.10
1351;DHT22;669;50.206;9.998;2022-07-22T11:14:28;33.60;20.80
1351;DHT22;669;50.206;9.998;2022-07-22T11:16:59;33.70;20.60
1351;DHT22;669;50.206;9.998;2022-07-22T11:19:28;33.70;22.20
1351;DHT22;669;50.206;9.998;2022-07-22T11:22:07;33.70;22.20
1351;DHT22;669;50.206;9.998;2022-07-22T11:24:41;34.10;22.40
1351;DHT22;669;50.206;9.998;2022-07-22T11:27:14;34.00;21.50
1351;DHT22;669;50.206;9.998;2022-07-22T11:29:42;34.00;20.60
1351;DHT22;669;50.206;9.998;2022-07-22T11:32:13;34.20;20.90
1351;DHT22;669;50.206;9.998;2022-07-22T11:34:44;34.10;21.10
1351;DHT22;669;50.206;9.998;2022-07-22T11:37:13;34.40;21.50
1351;DHT22;669;50.206;9.998;2022-07-22T11:39:43;34.50;20.80
1351;DHT22;669;50.206;9.998;2022-07-22T11:42:11;34.60;20.90
1351;DHT22;669;50.206;9.998;2022-07-22T11:44:39;34.30;22.50
1351;DHT22;669;50.206;9.998;2022-07-22T11:47:08;34.40;20.60
1351;DHT22;669;50.206;9.998;2022-07-22T11:49:38;34.30;21.60
1351;DHT22;669;50.206;9.998;2022-07-22T11:52:08;34.20;20.70
1351;DHT22;669;50.206;9.998;2022-07-22T11:54:39;33.90;22.30
1351;DHT22;669;50.206;9.998;2022-07-22T11:57:11;34.10;21.30
1351;DHT22;669;50.206;9.998;2022-07-22T11:59:39;34.40;20.70
1351;DHT22;669;50.206;9.998;2022-07-22T12:02:07;34.80;20.60
1351;DHT22;669;50.206;9.998;2022-07-22T12:04:38;34.90;20.70
1351;DHT22;669;50.206;9.998;2022-07-22T12:07:07;35.00;20.00
1351;DHT22;669;50.206;9.998;2022-07-22T12:09:36;35.00;21.50
1351;DHT22;669;50.206;9.998;2022-07-22T12:12:09;34.90;21.30
1351;DHT22;669;50.206;9.998;2022-07-22T12:14:45;34.80;20.50
1351;DHT22;669;50.206;9.998;2022-07-22T12:17:15;35.10;19.60
1351;DHT22;669;50.206;9.998;2022-07-22T12:19:43;35.00;19.80
1351;DHT22;669;50.206;9.998;2022-07-22T12:22:18;35.20;19.30
1351;DHT22;669;50.206;9.998;2022-07-22T12:24:57;35.50;19.20
1351;DHT22;669;50.206;9.998;2022-07-22T12:27:27;35.80;18.30
1351;DHT22;669;50.206;9.998;2022-07-22T12:29:56;35.90;18.70
1351;DHT22;669;50.206;9.998;2022-07-22T12:32:26;36.10;18.00
1351;DHT22;669;50.206;9.998;2022-07-22T12:34:57;36.00;17.70
1351;DHT22;669;50.206;9.998;2022-07-22T12:37:26;35.20;19.40
1351;DHT22;669;50.206;9.998;2022-07-22T12:39:57;34.90;20.20
1351;DHT22;669;50.206;9.998;2022-07-22T12:42:28;34.80;19.70
1351;DHT22;669;50.206;9.998;2022-07-22T12:45:03;35.20;18.90
1351;DHT22;669;50.206;9.998;2022-07-22T12:47:45;35.80;17.70
1351;DHT22;669;50.206;9.998;2022-07-22T12:50:25;35.90;18.30
1351;DHT22;669;50.206;9.998;2022-07-22T12:52:55;36.20;18.20
1351;DHT22;669;50.206;9.998;2022-07-22T12:55:43;36.00;19.70
1351;DHT22;669;50.206;9.998;2022-07-22T12:58:13;36.40;17.90
1351;DHT22;669;50.206;9.998;2022-07-22T13:00:45;36.10;18.50
1351;DHT22;669;50.206;9.998;2022-07-22T13:03:13;36.30;17.00
1351;DHT22;669;50.206;9.998;2022-07-22T13:05:41;36.90;16.70
1351;DHT22;669;50.206;9.998;2022-07-22T13:08:09;37.10;16.10
1351;DHT22;669;50.206;9.998;2022-07-22T13:10:39;36.90;17.20
1351;DHT22;669;50.206;9.998;2022-07-22T13:13:07;36.90;17.40
1351;DHT22;669;50.206;9.998;2022-07-22T13:15:36;37.10;16.30
1351;DHT22;669;50.206;9.998;2022-07-22T13:18:05;37.00;16.30
1351;DHT22;669;50.206;9.998;2022-07-22T13:20:33;37.20;16.40
1351;DHT22;669;50.206;9.998;2022-07-22T13:23:01;37.20;15.70
1351;DHT22;669;50.206;9.998;2022-07-22T13:25:29;36.90;16.20
1351;DHT22;669;50.206;9.998;2022-07-22T13:27:57;36.10;16.60
1351;DHT22;669;50.206;9.998;2022-07-22T13:30:25;35.70;18.00
1351;DHT22;669;50.206;9.998;2022-07-22T13:32:55;35.50;19.20
1351;DHT22;669;50.206;9.998;2022-07-22T13:35:23;35.20;18.60
1351;DHT22;669;50.206;9.998;2022-07-22T13:37:51;35.10;20.10
1351;DHT22;669;50.206;9.998;2022-07-22T13:40:19;35.40;17.60
1351;DHT22;669;50.206;9.998;2022-07-22T13:42:47;35.60;17.70
1351;DHT22;669;50.206;9.998;2022-07-22T13:45:15;36.00;16.80
1351;DHT22;669;50.206;9.998;2022-07-22T13:47:43;36.00;17.60
1351;DHT22;669;50.206;9.998;2022-07-22T13:50:12;35.70;17.80
1351;DHT22;669;50.206;9.998;2022-07-22T13:52:40;35.80;17.80
1351;DHT22;669;50.206;9.998;2022-07-22T13:55:08;35.60;17.60
1351;DHT22;669;50.206;9.998;2022-07-22T13:57:36;35.80;17.50
1351;DHT22;669;50.206;9.998;2022-07-22T14:00:05;36.00;16.70
1351;DHT22;669;50.206;9.998;2022-07-22T14:02:40;36.10;17.10
1351;DHT22;669;50.206;9.998;2022-07-22T14:05:08;35.90;17.00
1351;DHT22;669;50.206;9.998;2022-07-22T14:07:38;35.60;17.30
1351;DHT22;669;50.206;9.998;2022-07-22T14:10:07;35.40;17.80
1351;DHT22;669;50.206;9.998;2022-07-22T14:12:36;35.50;16.80
1351;DHT22;669;50.206;9.998;2022-07-22T14:15:05;35.40;17.20
1351;DHT22;669;50.206;9.998;2022-07-22T14:17:34;35.40;17.30
1351;DHT22;669;50.206;9.998;2022-07-22T14:20:02;35.20;17.40
1351;DHT22;669;50.206;9.998;2022-07-22T14:22:33;34.60;18.60
1351;DHT22;669;50.206;9.998;2022-07-22T14:25:03;34.40;18.70
1351;DHT22;669;50.206;9.998;2022-07-22T14:27:31;34.50;18.30
1351;DHT22;669;50.206;9.998;2022-07-22T14:29:59;34.30;18.60
1351;DHT22;669;50.206;9.998;2022-07-22T14:32:27;34.00;18.80
1351;DHT22;669;50.206;9.998;2022-07-22T14:34:55;33.90;19.30
1351;DHT22;669;50.206;9.998;2022-07-22T14:37:23;33.80;19.30
1351;DHT22;669;50.206;9.998;2022-07-22T14:39:53;33.90;18.50
1351;DHT22;669;50.206;9.998;2022-07-22T14:42:22;33.80;19.30
1351;DHT22;669;50.206;9.998;2022-07-22T14:44:50;33.60;19.90
1351;DHT22;669;50.206;9.998;2022-07-22T14:47:18;33.50;19.80
1351;DHT22;669;50.206;9.998;2022-07-22T14:49:46;33.60;18.30
1351;DHT22;669;50.206;9.998;2022-07-22T14:52:14;33.50;18.00
1351;DHT22;669;50.206;9.998;2022-07-22T14:54:42;33.20;19.20
1351;DHT22;669;50.206;9.998;2022-07-22T14:57:10;32.90;18.50
1351;DHT22;669;50.206;9.998;2022-07-22T14:59:39;32.40;19.40
1351;DHT22;669;50.206;9.998;2022-07-22T15:02:07;31.90;20.40
1351;DHT22;669;50.206;9.998;2022-07-22T15:04:35;31.70;21.10
1351;DHT22;669;50.206;9.998;2022-07-22T15:07:03;31.90;20.40
1351;DHT22;669;50.206;9.998;2022-07-22T15:09:31;31.90;20.70
1351;DHT22;669;50.206;9.998;2022-07-22T15:11:59;32.00;20.90
1351;DHT22;669;50.206;9.998;2022-07-22T15:14:27;31.90;20.50
1351;DHT22;669;50.206;9.998;2022-07-22T15:16:57;31.80;20.90
1351;DHT22;669;50.206;9.998;2022-07-22T15:19:25;31.80;20.20
1351;DHT22;669;50.206;9.998;2022-07-22T15:21:53;31.80;21.20
1351;DHT22;669;50.206;9.998;2022-07-22T15:24:22;31.60;20.50
1351;DHT22;669;50.206;9.998;2022-07-22T15:26:50;31.60;21.20
1351;DHT22;669;50.206;9.998;2022-07-22T15:29:18;31.60;20.20
1351;DHT22;669;50.206;9.998;2022-07-22T15:31:46;31.20;20.80
1351;DHT22;669;50.206;9.998;2022-07-22T15:34:16;31.20;21.40
1351;DHT22;669;50.206;9.998;2022-07-22T15:36:44;31.10;22.00
1351;DHT22;669;50.206;9.998;2022-07-22T15:39:12;31.10;20.90
1351;DHT22;669;50.206;9.998;2022-07-22T15:41:40;31.10;19.80
1351;DHT22;669;50.206;9.998;2022-07-22T15:44:08;31.10;20.90
1351;DHT22;669;50.206;9.998;2022-07-22T15:46:36;31.00;20.10
1351;DHT22;669;50.206;9.998;2022-07-22T15:49:05;31.00;20.90
1351;DHT22;669;50.206;9.998;2022-07-22T15:51:34;30.90;20.50
1351;DHT22;669;50.206;9.998;2022-07-22T15:54:02;30.80;20.80
1351;DHT22;669;50.206;9.998;2022-07-22T15:56:30;30.90;20.80
1351;DHT22;669;50.206;9.998;2022-07-22T15:58:58;30.80;20.80
1351;DHT22;669;50.206;9.998;2022-07-22T16:01:55;30.80;20.80
1351;DHT22;669;50.206;9.998;2022-07-22T16:04:23;30.70;20.70
1351;DHT22;669;50.206;9.998;2022-07-22T16:06:53;30.60;20.70
1351;DHT22;669;50.206;9.998;2022-07-22T16:09:21;30.60;21.40
1351;DHT22;669;50.206;9.998;2022-07-22T16:11:54;30.60;21.40
1351;DHT22;669;50.206;9.998;2022-07-22T16:14:22;30.40;21.30
1351;DHT22;669;50.206;9.998;2022-07-22T16:16:50;30.30;21.40
1351;DHT22;669;50.206;9.998;2022-07-22T16:19:20;30.20;20.70
1351;DHT22;669;50.206;9.998;2022-07-22T16:21:48;30.00;21.60
1351;DHT22;669;50.206;9.998;2022-07-22T16:24:17;30.00;21.90
1351;DHT22;669;50.206;9.998;2022-07-22T16:26:46;29.90;23.10
1351;DHT22;669;50.206;9.998;2022-07-22T16:29:14;29.80;23.60
1351;DHT22;669;50.206;9.998;2022-07-22T16:31:41;29.80;22.80